Time,TemperatureF,DewpointF,PressureIn,WindDirection,WindDirectionDegrees,WindSpeedMPH,WindSpeedGustMPH,Humidity,HourlyPrecipIn,Conditions,Clouds,dailyrainin,SoftwareType,DateUTC
2013-09-10 00:21:00,59.0,58.0,29.93,North,0,0.0,0.0,97,0.00,,,0.00,,2013-09-10 07:21:00,
2013-09-10 00:52:00,59.0,58.0,29.94,North,0,0.0,0.0,97,0.00,,,0.00,,2013-09-10 07:52:00,
2013-09-10 01:22:00,59.0,58.0,29.93,North,0,0.0,0.0,97,0.00,,,0.00,,2013-09-10 08:22:00,
2013-09-10 01:52:00,59.0,58.0,29.93,North,0,0.0,0.0,97,0.00,,,0.00,,2013-09-10 08:52:00,
2013-09-10 02:21:00,58.0,57.0,29.93,North,0,0.0,0.0,97,0.00,,,0.00,,2013-09-10 09:21:00,
2013-09-10 02:54:00,58.0,57.0,29.92,North,0,0.0,0.0,98,0.00,,,0.00,,2013-09-10 09:54:00,
2013-09-10 03:23:00,58.0,57.0,29.92,North,0,0.0,0.0,98,0.00,,,0.00,,2013-09-10 10:23:00,
2013-09-10 03:53:00,57.0,56.0,29.92,North,0,0.0,0.0,98,0.00,,,0.00,,2013-09-10 10:53:00,
2013-09-10 04:22:00,57.0,56.0,29.91,North,0,0.0,0.0,98,0.00,,,0.00,,2013-09-10 11:22:00,
2013-09-10 04:52:00,57.0,56.0,29.91,North,0,0.0,0.0,98,0.00,,,0.00,,2013-09-10 11:52:00,
2013-09-10 05:22:00,57.0,56.0,29.91,North,0,0.0,0.0,98,0.00,,,0.00,,2013-09-10 12:22:00,
2013-09-10 05:52:00,56.0,55.0,29.90,North,0,0.0,0.0,98,0.00,,,0.00,,2013-09-10 12:52:00,
2013-09-10 06:21:00,56.0,55.0,29.90,North,0,0.0,0.0,98,0.00,,,0.00,,2013-09-10 13:21:00,
2013-09-10 06:52:00,56.0,55.0,29.91,North,0,0.0,0.0,98,0.00,,,0.00,,2013-09-10 13:52:00,
2013-09-10 07:21:00,57.0,56.0,29.91,North,0,0.0,0.0,98,0.00,,,0.00,,2013-09-10 14:21:00,
2013-09-10 07:52:00,57.0,57.0,29.91,North,0,0.0,0.0,99,0.00,,,0.00,,2013-09-10 14:52:00,
2013-09-10 08:22:00,57.0,56.0,29.91,North,0,0.0,0.0,98,0.00,,,0.00,,2013-09-10 15:22:00,
2013-09-10 08:54:00,58.0,58.0,29.91,WNW,282,0.0,3.0,99,0.00,,,0.00,,2013-09-10 15:54:00,
2013-09-10 09:23:00,58.0,57.0,29.91,North,0,0.0,0.0,98,0.00,,,0.00,,2013-09-10 16:23:00,
2013-09-10 09:53:00,59.0,58.0,29.90,North,0,0.0,0.0,98,0.00,,,0.00,,2013-09-10 16:53:00,
2013-09-10 10:23:00,62.0,61.0,29.90,North,0,0.0,0.0,97,0.00,,,0.00,,2013-09-10 17:23:00,
2013-09-10 10:52:00,64.0,62.0,29.89,WNW,288,0.0,2.0,94,0.00,,,0.00,,2013-09-10 17:52:00,
2013-09-10 11:21:00,66.0,62.0,29.88,NW,312,2.0,8.0,87,0.00,,,0.00,,2013-09-10 18:21:00,
2013-09-10 12:21:00,67.0,61.0,29.87,West,273,7.0,12.0,81,0.00,,,0.00,,2013-09-10 19:21:00,
2013-09-10 12:52:00,67.0,62.0,29.86,WNW,292,6.0,10.0,83,0.00,,,0.00,,2013-09-10 19:52:00,
2013-09-10 13:21:00,67.0,61.0,29.84,West,278,0.0,9.0,82,0.00,,,0.00,,2013-09-10 20:21:00,
2013-09-10 13:52:00,67.0,61.0,29.84,West,277,7.0,10.0,81,0.00,,,0.00,,2013-09-10 20:52:00,
2013-09-10 14:22:00,67.0,62.0,29.84,NW,315,6.0,14.0,83,0.00,,,0.00,,2013-09-10 21:22:00,
2013-09-10 14:54:00,69.0,63.0,29.82,WNW,295,3.0,10.0,80,0.00,,,0.00,,2013-09-10 21:54:00,
2013-09-10 15:24:00,71.0,63.0,29.81,NW,310,10.0,18.0,77,0.00,,,0.00,,2013-09-10 22:24:00,
2013-09-10 15:54:00,69.0,63.0,29.80,NW,308,11.0,14.0,80,0.00,,,0.00,,2013-09-10 22:54:00,
2013-09-10 16:22:00,70.0,64.0,29.80,NW,310,10.0,16.0,80,0.00,,,0.00,,2013-09-10 23:22:00,
2013-09-10 16:53:00,70.0,63.0,29.79,NW,320,9.0,15.0,79,0.00,,,0.00,,2013-09-10 23:53:00,
2013-09-10 17:22:00,70.0,63.0,29.78,NW,316,9.0,13.0,78,0.00,,,0.00,,2013-09-11 00:22:00,
2013-09-10 17:52:00,70.0,62.0,29.78,NW,315,5.0,10.0,77,0.00,,,0.00,,2013-09-11 00:52:00,
2013-09-10 18:11:00,70.0,63.0,29.77,NNW,333,4.0,10.0,78,0.00,,,0.00,,2013-09-11 01:11:00,
2013-09-10 18:21:00,70.0,63.0,29.77,NW,324,5.0,8.0,79,0.00,,,0.00,,2013-09-11 01:21:00,
2013-09-10 18:53:00,69.0,63.0,29.76,WNW,291,0.0,5.0,80,0.00,,,0.00,,2013-09-11 01:53:00,
2013-09-10 19:22:00,68.0,62.0,29.76,North,0,0.0,0.0,81,0.00,,,0.00,,2013-09-11 02:22:00,
2013-09-10 19:52:00,67.0,61.0,29.75,North,0,0.0,0.0,81,0.00,,,0.00,,2013-09-11 02:52:00,
2013-09-10 20:22:00,66.0,61.0,29.76,North,0,0.0,0.0,85,0.00,,,0.00,,2013-09-11 03:22:00,
2013-09-10 20:54:00,65.0,61.0,29.75,North,0,0.0,0.0,88,0.00,,,0.00,,2013-09-11 03:54:00,
2013-09-10 21:14:00,65.0,62.0,29.76,North,0,0.0,0.0,89,0.00,,,0.00,,2013-09-11 04:14:00,
2013-09-10 21:24:00,64.0,62.0,29.76,North,0,0.0,0.0,93,0.00,,,0.00,,2013-09-11 04:24:00,
2013-09-10 21:54:00,63.0,61.0,29.76,North,0,0.0,0.0,92,0.00,,,0.00,,2013-09-11 04:54:00,
2013-09-10 22:22:00,62.0,60.0,29.76,North,0,0.0,0.0,94,0.00,,,0.00,,2013-09-11 05:22:00,
2013-09-10 22:53:00,63.0,61.0,29.76,North,0,0.0,0.0,94,0.00,,,0.00,,2013-09-11 05:53:00,
2013-09-10 23:21:00,63.0,62.0,29.76,North,0,0.0,0.0,95,0.00,,,0.00,,2013-09-11 06:21:00,
2013-09-10 23:52:00,63.0,62.0,29.77,North,0,0.0,0.0,96,0.00,,,0.00,,2013-09-11 06:52:00,